Terminal Aerodrome Forecast
Issued by NWS Bismarck, ND

Home | Current Version | Previous Version | Text Only | Print | Product List | Glossary Off
Versions: 1 2 3 4 5 6 7 8 9 10 11 12 13 14 15 16 17 18 19 20

000
FTUS43 KBIS 071600 AAA
TAFBIS
TAF AMD
KBIS 071602Z 0716/0812 35013KT P6SM SCT060 BKN120
     FM071700 33017KT P6SM -SHRA VCTS SCT040CB BKN060
     FM072100 33018G28KT P6SM VCSH BKN060
     FM080200 31008KT P6SM BKN060=

USA.gov is the U.S. government's official web portal to all federal, state and local government web resources and services.